This is the latest recevied weather packets stored in our database for station/object SAVIL. If no packets are shown the sender has not sent any weather packets the latest 10 day(s).
| Time | Temp. | Humidity | Pressure | Rain* | Wind** | Luminosity | Snow |
|---|---|---|---|---|---|---|---|
| 1777616814 | 12.22° C | 62% | 1016.7 hPa | 0 mm | - | - | - |
| 1777615613 | 11.67° C | 63% | 1016.8 hPa | 0 mm | - | - | - |
| 1777614413 | 11.11° C | 66% | 1017 hPa | 0 mm | - | - | - |
| 1777613213 | 10° C | 69% | 1017 hPa | 0 mm | - | - | - |
| 1777612013 | 8.33° C | 81% | 1017.3 hPa | 0 mm | - | - | - |
| 1777610813 | 6.67° C | 86% | 1017.4 hPa | 0 mm | - | - | - |
| 1777609613 | 6.11° C | 88% | 1017.6 hPa | 0 mm | - | - | - |
| 1777608413 | 6.11° C | 86% | 1017.7 hPa | 0 mm | - | - | - |
| 1777607213 | 5° C | 92% | 1017.9 hPa | 0 mm | - | - | - |
| 1777606013 | 5° C | 90% | 1018.1 hPa | 0 mm | - | - | - |
| 1777604813 | 5.56° C | 89% | 1018.2 hPa | 0 mm | - | - | - |
| 1777603613 | 5° C | 91% | 1018.3 hPa | 0 mm | - | - | - |
| 1777602412 | 4.44° C | 95% | 1018.4 hPa | 0 mm | - | - | - |
| 1777601212 | 4.44° C | 94% | 1018.5 hPa | 0 mm | - | - | - |
| 1777600012 | 4.44° C | 93% | 1018.6 hPa | 0 mm | - | - | - |
| 1777598812 | 5° C | 92% | 1018.6 hPa | 0 mm | - | - | - |
| 1777597612 | 5° C | 91% | 1018.7 hPa | 0 mm | - | - | - |
| 1777596412 | 5° C | 92% | 1018.6 hPa | 0 mm | - | - | - |
| 1777595212 | 5° C | 91% | 1018.8 hPa | 0 mm | - | - | - |
| 1777594012 | 5° C | 92% | 1018.9 hPa | 0 mm | - | - | - |
| 1777592812 | 5° C | 93% | 1019 hPa | 0 mm | - | - | - |
| 1777591612 | 5° C | 92% | 1018.9 hPa | 0 mm | - | - | - |
| 1777590412 | 5° C | 92% | 1018.8 hPa | 0 mm | - | - | - |
| 1777589212 | 5° C | 91% | 1018.7 hPa | 0 mm | - | - | - |
| 1777588012 | 5.56° C | 90% | 1018.7 hPa | 0 mm | - | - | - |
* Rain latest hour (hover to see other rain measurements)
** Current wind speed in m/s (hover to see current wind gust speed)